Connor, United Kingdom
Current Conditions -  °F | °C
As of 2:20 AM on Thursday 27 Nov 2014 (Local Time) from EGAA Reporting Station
Moderate Fog Moderate Fog  
Wind Chill: 30°   Ceiling: Unl
Heat Index: 34°   Visibility: 0.18mi
Dew Point: 34°   Wind: 5mph
Humidity: 100%   Direction: 160°SSE
Pressure: 29.68"   Gusts: NA
Location:  54.8°N, 6.2°W
Report Text: EGAA 270220Z 16004KT 0300 R25/0450 R07/0275 FG NSC 01/01 Q1005
Loading
Personal Weather Stations






























Interactive Weather Map New forecast layout! Learn more

10-Day Weather Forecast

Advertisements
Track Severe Weather on mobile